Time,TemperatureF,DewpointF,PressureIn,WindDirection,WindDirectionDegrees,WindSpeedMPH,WindSpeedGustMPH,Humidity,HourlyPrecipIn,Conditions,Clouds,dailyrainin,SoftwareType,DateUTC
2013-04-05 00:00:00,47.8,45.0,30.11,NW,316,0.0,-999.0,90,0.00,,,0.00,WeatherSnoop3.0,2013-04-05 05:00:00,
2013-04-05 00:05:00,47.8,45.0,30.11,NW,319,0.0,-999.0,90,0.00,,,0.00,WeatherSnoop3.0,2013-04-05 05:05:00,
2013-04-05 00:10:00,47.9,45.1,30.11,North,360,0.0,-999.0,90,0.00,,,0.00,WeatherSnoop3.0,2013-04-05 05:10:00,
2013-04-05 00:15:00,47.8,45.0,30.11,NW,317,0.0,-999.0,90,0.00,,,0.00,WeatherSnoop3.0,2013-04-05 05:15:00,
2013-04-05 00:20:00,47.8,44.7,30.11,NW,319,0.0,-999.0,89,0.00,,,0.00,WeatherSnoop3.0,2013-04-05 05:20:00,
2013-04-05 00:25:00,47.9,44.8,30.11,NW,321,0.0,-999.0,89,0.00,,,0.00,WeatherSnoop3.0,2013-04-05 05:25:00,
2013-04-05 00:30:00,47.8,44.7,30.11,NNW,327,0.0,-999.0,89,0.00,,,0.00,WeatherSnoop3.0,2013-04-05 05:30:00,
2013-04-05 00:35:00,47.8,44.7,30.11,North,360,0.0,-999.0,89,0.00,,,0.00,WeatherSnoop3.0,2013-04-05 05:35:00,
2013-04-05 00:40:00,47.8,45.0,30.12,NW,316,0.0,-999.0,90,0.00,,,0.00,WeatherSnoop3.0,2013-04-05 05:40:00,
2013-04-05 00:45:00,47.8,44.7,30.12,NW,310,0.0,-999.0,89,0.00,,,0.00,WeatherSnoop3.0,2013-04-05 05:45:00,
2013-04-05 00:50:00,47.8,44.7,30.12,NW,317,0.0,-999.0,89,0.00,,,0.00,WeatherSnoop3.0,2013-04-05 05:50:00,
2013-04-05 00:55:00,47.8,44.7,30.12,WNW,299,0.0,-999.0,89,0.00,,,0.00,WeatherSnoop3.0,2013-04-05 05:55:00,
2013-04-05 01:00:00,47.8,44.7,30.12,NW,319,0.0,-999.0,89,0.00,,,0.00,WeatherSnoop3.0,2013-04-05 06:00:00,
2013-04-05 01:05:00,47.8,44.7,30.12,NW,325,0.0,-999.0,89,0.00,,,0.00,WeatherSnoop3.0,2013-04-05 06:05:00,
2013-04-05 01:10:00,47.8,44.7,30.12,NW,326,0.0,-999.0,89,0.00,,,0.00,WeatherSnoop3.0,2013-04-05 06:10:00,
2013-04-05 01:15:00,47.8,44.7,30.12,NW,317,0.0,-999.0,89,0.00,,,0.00,WeatherSnoop3.0,2013-04-05 06:15:00,
2013-04-05 01:20:00,47.8,44.7,30.12,NW,315,0.0,-999.0,89,0.00,,,0.00,WeatherSnoop3.0,2013-04-05 06:20:00,
2013-04-05 01:25:00,47.8,44.7,30.12,NW,321,0.0,-999.0,89,0.00,,,0.00,WeatherSnoop3.0,2013-04-05 06:25:00,
2013-04-05 01:30:00,47.8,44.7,30.12,NW,316,0.0,-999.0,89,0.00,,,0.00,WeatherSnoop3.0,2013-04-05 06:30:00,
2013-04-05 01:35:00,47.8,44.7,30.12,NW,312,0.0,-999.0,89,0.00,,,0.00,WeatherSnoop3.0,2013-04-05 06:35:00,
2013-04-05 01:40:00,47.8,44.7,30.12,NW,315,0.0,-999.0,89,0.00,,,0.00,WeatherSnoop3.0,2013-04-05 06:40:00,
2013-04-05 01:45:00,47.8,44.7,30.12,NW,314,0.0,-999.0,89,0.00,,,0.00,WeatherSnoop3.0,2013-04-05 06:45:00,
2013-04-05 01:50:00,47.8,45.0,30.12,WNW,296,0.0,-999.0,90,0.00,,,0.00,WeatherSnoop3.0,2013-04-05 06:50:00,
2013-04-05 01:55:00,47.8,45.0,30.12,WNW,286,0.0,-999.0,90,0.00,,,0.00,WeatherSnoop3.0,2013-04-05 06:55:00,
2013-04-05 02:00:00,47.8,44.7,30.12,NW,307,0.0,-999.0,89,0.00,,,0.00,WeatherSnoop3.0,2013-04-05 07:00:00,
2013-04-05 02:05:00,47.8,44.7,30.12,NW,318,0.0,-999.0,89,0.00,,,0.00,WeatherSnoop3.0,2013-04-05 07:05:00,
2013-04-05 02:10:00,47.8,45.0,30.12,WNW,291,0.0,-999.0,90,0.00,,,0.00,WeatherSnoop3.0,2013-04-05 07:10:00,
2013-04-05 02:15:00,47.8,45.0,30.12,NW,325,0.0,-999.0,90,0.00,,,0.00,WeatherSnoop3.0,2013-04-05 07:15:00,
2013-04-05 02:20:00,47.8,45.0,30.12,WNW,296,0.0,-999.0,90,0.00,,,0.00,WeatherSnoop3.0,2013-04-05 07:20:00,
2013-04-05 02:25:00,47.8,45.0,30.12,NW,321,0.0,-999.0,90,0.00,,,0.00,WeatherSnoop3.0,2013-04-05 07:25:00,
2013-04-05 02:30:00,47.8,45.0,30.12,NW,317,0.0,-999.0,90,0.00,,,0.00,WeatherSnoop3.0,2013-04-05 07:30:00,
2013-04-05 02:35:00,47.8,45.0,30.12,NNW,327,0.0,-999.0,90,0.00,,,0.00,WeatherSnoop3.0,2013-04-05 07:35:00,
2013-04-05 02:40:00,47.8,45.0,30.12,WNW,301,0.0,-999.0,90,0.00,,,0.00,WeatherSnoop3.0,2013-04-05 07:40:00,
2013-04-05 02:45:00,47.8,45.0,30.12,WNW,296,0.0,-999.0,90,0.00,,,0.00,WeatherSnoop3.0,2013-04-05 07:45:00,
2013-04-05 02:50:00,47.8,45.0,30.12,NW,318,0.0,-999.0,90,0.00,,,0.00,WeatherSnoop3.0,2013-04-05 07:50:00,
2013-04-05 02:55:00,47.8,45.0,30.12,NW,305,0.0,-999.0,90,0.00,,,0.00,WeatherSnoop3.0,2013-04-05 07:55:00,
2013-04-05 03:00:00,47.8,45.0,30.12,NW,306,0.0,-999.0,90,0.00,,,0.00,WeatherSnoop3.0,2013-04-05 08:00:00,
2013-04-05 03:05:00,47.8,45.0,30.12,NW,322,0.0,-999.0,90,0.00,,,0.00,WeatherSnoop3.0,2013-04-05 08:05:00,
2013-04-05 03:10:00,47.8,45.3,30.12,NNW,329,0.0,-999.0,91,0.00,,,0.00,WeatherSnoop3.0,2013-04-05 08:10:00,
2013-04-05 03:15:00,47.8,45.0,30.12,WNW,302,0.0,-999.0,90,0.00,,,0.00,WeatherSnoop3.0,2013-04-05 08:15:00,
2013-04-05 03:20:00,47.7,45.2,30.11,WNW,294,0.0,-999.0,91,0.00,,,0.00,WeatherSnoop3.0,2013-04-05 08:20:00,
2013-04-05 03:25:00,47.7,45.2,30.12,North,360,0.0,-999.0,91,0.00,,,0.00,WeatherSnoop3.0,2013-04-05 08:25:00,
2013-04-05 03:30:00,47.8,45.0,30.12,NW,307,0.0,-999.0,90,0.00,,,0.00,WeatherSnoop3.0,2013-04-05 08:30:00,
2013-04-05 03:35:00,47.8,45.3,30.11,NW,315,0.0,-999.0,91,0.00,,,0.00,WeatherSnoop3.0,2013-04-05 08:35:00,
2013-04-05 03:40:00,47.7,45.2,30.11,NNW,330,0.0,-999.0,91,0.00,,,0.00,WeatherSnoop3.0,2013-04-05 08:40:00,
2013-04-05 03:45:00,47.7,45.2,30.11,NW,309,0.0,-999.0,91,0.00,,,0.00,WeatherSnoop3.0,2013-04-05 08:45:00,
2013-04-05 03:50:00,47.5,45.0,30.11,NW,311,0.0,-999.0,91,0.00,,,0.00,WeatherSnoop3.0,2013-04-05 08:50:00,
2013-04-05 03:55:00,47.4,44.9,30.11,WNW,300,0.0,-999.0,91,0.00,,,0.00,WeatherSnoop3.0,2013-04-05 08:55:00,
2013-04-05 04:00:00,47.3,44.8,30.11,NW,319,0.0,-999.0,91,0.00,,,0.00,WeatherSnoop3.0,2013-04-05 09:00:00,
2013-04-05 04:05:00,46.9,44.4,30.11,NW,305,0.0,-999.0,91,0.00,,,0.00,WeatherSnoop3.0,2013-04-05 09:05:00,
2013-04-05 04:10:00,46.7,44.2,30.11,NW,308,0.0,-999.0,91,0.00,,,0.00,WeatherSnoop3.0,2013-04-05 09:10:00,
2013-04-05 04:15:00,46.5,44.3,30.11,NW,306,0.0,-999.0,92,0.00,,,0.00,WeatherSnoop3.0,2013-04-05 09:15:00,
2013-04-05 04:20:00,46.6,44.4,30.12,WNW,284,0.0,-999.0,92,0.00,,,0.00,WeatherSnoop3.0,2013-04-05 09:20:00,
2013-04-05 04:25:00,46.8,44.6,30.11,NW,304,0.0,-999.0,92,0.00,,,0.00,WeatherSnoop3.0,2013-04-05 09:25:00,
2013-04-05 04:30:00,46.7,44.5,30.11,NW,315,0.0,-999.0,92,0.00,,,0.00,WeatherSnoop3.0,2013-04-05 09:30:00,
2013-04-05 04:35:00,46.5,44.3,30.11,WNW,301,0.0,-999.0,92,0.00,,,0.00,WeatherSnoop3.0,2013-04-05 09:35:00,
2013-04-05 04:40:00,46.5,44.3,30.11,NW,317,0.0,-999.0,92,0.00,,,0.00,WeatherSnoop3.0,2013-04-05 09:40:00,
2013-04-05 04:45:00,46.2,44.0,30.11,NW,307,0.0,-999.0,92,0.00,,,0.00,WeatherSnoop3.0,2013-04-05 09:45:00,
2013-04-05 04:50:00,46.1,43.9,30.11,NW,308,0.0,-999.0,92,0.00,,,0.00,WeatherSnoop3.0,2013-04-05 09:50:00,
2013-04-05 04:55:00,45.9,43.7,30.11,NW,315,0.0,-999.0,92,0.00,,,0.00,WeatherSnoop3.0,2013-04-05 09:55:00,
2013-04-05 05:00:00,45.8,43.9,30.11,NW,309,0.0,-999.0,93,0.00,,,0.00,WeatherSnoop3.0,2013-04-05 10:00:00,
2013-04-05 05:05:00,45.8,43.9,30.11,NW,316,0.0,-999.0,93,0.00,,,0.00,WeatherSnoop3.0,2013-04-05 10:05:00,
2013-04-05 05:10:00,45.7,43.8,30.11,NW,313,0.0,-999.0,93,0.00,,,0.00,WeatherSnoop3.0,2013-04-05 10:10:00,
2013-04-05 05:15:00,45.6,43.7,30.12,North,360,0.0,-999.0,93,0.00,,,0.00,WeatherSnoop3.0,2013-04-05 10:15:00,
2013-04-05 05:20:00,45.5,43.6,30.12,NW,314,0.0,-999.0,93,0.00,,,0.00,WeatherSnoop3.0,2013-04-05 10:20:00,
2013-04-05 05:25:00,45.4,43.5,30.12,NW,309,0.0,-999.0,93,0.00,,,0.00,WeatherSnoop3.0,2013-04-05 10:25:00,
2013-04-05 05:30:00,45.2,43.3,30.12,WNW,302,0.0,-999.0,93,0.00,,,0.00,WeatherSnoop3.0,2013-04-05 10:30:00,
2013-04-05 05:35:00,45.1,43.2,30.13,WNW,302,0.0,-999.0,93,0.00,,,0.00,WeatherSnoop3.0,2013-04-05 10:35:00,
2013-04-05 05:40:00,45.0,43.1,30.13,NW,310,0.0,-999.0,93,0.00,,,0.00,WeatherSnoop3.0,2013-04-05 10:40:00,
2013-04-05 05:45:00,44.7,42.8,30.13,NW,310,0.0,-999.0,93,0.00,,,0.00,WeatherSnoop3.0,2013-04-05 10:45:00,
2013-04-05 05:50:00,44.7,43.1,30.14,NW,304,0.0,-999.0,94,0.00,,,0.00,WeatherSnoop3.0,2013-04-05 10:50:00,
2013-04-05 05:55:00,44.8,43.2,30.14,NW,306,0.0,-999.0,94,0.00,,,0.00,WeatherSnoop3.0,2013-04-05 10:55:00,
2013-04-05 06:00:00,44.7,43.1,30.14,North,360,0.0,-999.0,94,0.00,,,0.00,WeatherSnoop3.0,2013-04-05 11:00:00,
2013-04-05 06:05:00,44.5,42.9,30.14,NW,318,0.0,-999.0,94,0.00,,,0.00,WeatherSnoop3.0,2013-04-05 11:05:00,
2013-04-05 06:10:00,44.5,42.9,30.14,NW,315,0.0,-999.0,94,0.00,,,0.00,WeatherSnoop3.0,2013-04-05 11:10:00,
2013-04-05 06:15:00,44.4,42.8,30.15,NW,316,0.0,-999.0,94,0.00,,,0.00,WeatherSnoop3.0,2013-04-05 11:15:00,
2013-04-05 06:20:00,44.3,42.7,30.15,NW,315,0.0,-999.0,94,0.00,,,0.00,WeatherSnoop3.0,2013-04-05 11:20:00,
2013-04-05 06:25:00,44.2,42.6,30.15,NW,314,0.0,-999.0,94,0.00,,,0.00,WeatherSnoop3.0,2013-04-05 11:25:00,
2013-04-05 06:30:00,44.1,42.5,30.15,NW,315,0.0,-999.0,94,0.00,,,0.00,WeatherSnoop3.0,2013-04-05 11:30:00,
2013-04-05 06:35:00,44.0,42.4,30.16,NW,315,0.0,-999.0,94,0.00,,,0.00,WeatherSnoop3.0,2013-04-05 11:35:00,
2013-04-05 06:40:00,43.9,42.3,30.16,NW,315,0.0,-999.0,94,0.00,,,0.00,WeatherSnoop3.0,2013-04-05 11:40:00,
2013-04-05 06:45:00,43.6,42.0,30.16,North,360,0.0,-999.0,94,0.00,,,0.00,WeatherSnoop3.0,2013-04-05 11:45:00,
2013-04-05 06:50:00,43.6,42.0,30.16,NW,315,0.0,-999.0,94,0.00,,,0.00,WeatherSnoop3.0,2013-04-05 11:50:00,
2013-04-05 06:55:00,43.6,42.0,30.16,NW,316,0.0,-999.0,94,0.00,,,0.00,WeatherSnoop3.0,2013-04-05 11:55:00,
2013-04-05 07:00:00,43.6,42.0,30.17,North,360,0.0,-999.0,94,0.00,,,0.00,WeatherSnoop3.0,2013-04-05 12:00:00,
2013-04-05 07:05:00,43.7,42.1,30.17,WNW,302,0.0,-999.0,94,0.00,,,0.00,WeatherSnoop3.0,2013-04-05 12:05:00,
2013-04-05 07:10:00,43.8,42.2,30.17,NW,317,0.0,-999.0,94,0.00,,,0.00,WeatherSnoop3.0,2013-04-05 12:10:00,
2013-04-05 07:15:00,43.9,42.3,30.17,NW,310,0.0,-999.0,94,0.00,,,0.00,WeatherSnoop3.0,2013-04-05 12:15:00,
2013-04-05 07:20:00,44.0,42.4,30.18,NW,317,0.0,-999.0,94,0.00,,,0.00,WeatherSnoop3.0,2013-04-05 12:20:00,
2013-04-05 07:25:00,44.1,42.5,30.18,NW,317,0.0,-999.0,94,0.00,,,0.00,WeatherSnoop3.0,2013-04-05 12:25:00,
2013-04-05 07:30:00,44.2,42.6,30.18,NW,318,0.0,-999.0,94,0.00,,,0.00,WeatherSnoop3.0,2013-04-05 12:30:00,
2013-04-05 07:35:00,44.3,43.0,30.19,NW,317,0.0,-999.0,95,0.00,,,0.00,WeatherSnoop3.0,2013-04-05 12:35:00,
2013-04-05 07:40:00,44.5,43.2,30.19,NW,318,0.0,-999.0,95,0.00,,,0.00,WeatherSnoop3.0,2013-04-05 12:40:00,
2013-04-05 07:45:00,44.7,43.4,30.19,NW,308,0.0,-999.0,95,0.00,,,0.00,WeatherSnoop3.0,2013-04-05 12:45:00,
2013-04-05 07:50:00,45.0,43.7,30.19,NW,325,0.0,-999.0,95,0.00,,,0.00,WeatherSnoop3.0,2013-04-05 12:50:00,
2013-04-05 07:55:00,45.2,43.9,30.20,NNW,335,0.0,-999.0,95,0.00,,,0.00,WeatherSnoop3.0,2013-04-05 12:55:00,
2013-04-05 08:00:00,45.5,44.2,30.20,WNW,303,0.0,-999.0,95,0.00,,,0.00,WeatherSnoop3.0,2013-04-05 13:00:00,
2013-04-05 08:05:00,45.6,44.0,30.20,NW,321,0.0,-999.0,94,0.00,,,0.00,WeatherSnoop3.0,2013-04-05 13:05:00,
2013-04-05 08:10:00,46.0,44.4,30.20,NW,307,0.0,-999.0,94,0.00,,,0.00,WeatherSnoop3.0,2013-04-05 13:10:00,
2013-04-05 08:16:00,46.3,44.7,30.20,NW,323,0.0,-999.0,94,0.00,,,0.00,WeatherSnoop3.0,2013-04-05 13:16:00,
2013-04-05 08:21:00,46.5,44.9,30.20,NW,315,0.0,-999.0,94,0.00,,,0.00,WeatherSnoop3.0,2013-04-05 13:21:00,
2013-04-05 08:26:00,46.9,45.3,30.20,NW,320,0.0,-999.0,94,0.00,,,0.00,WeatherSnoop3.0,2013-04-05 13:26:00,
2013-04-05 08:31:00,47.2,45.3,30.20,North,360,0.0,-999.0,93,0.00,,,0.00,WeatherSnoop3.0,2013-04-05 13:31:00,
2013-04-05 08:36:00,47.7,45.8,30.20,NW,326,0.0,-999.0,93,0.00,,,0.00,WeatherSnoop3.0,2013-04-05 13:36:00,
2013-04-05 08:41:00,47.8,45.6,30.20,NW,319,0.0,-999.0,92,0.00,,,0.00,WeatherSnoop3.0,2013-04-05 13:41:00,
2013-04-05 08:46:00,48.2,46.0,30.20,NW,316,0.0,-999.0,92,0.00,,,0.00,WeatherSnoop3.0,2013-04-05 13:46:00,
2013-04-05 08:51:00,48.8,46.3,30.20,NW,312,0.0,-999.0,91,0.00,,,0.00,WeatherSnoop3.0,2013-04-05 13:51:00,
2013-04-05 08:56:00,49.1,46.6,30.20,NW,323,0.0,-999.0,91,0.00,,,0.00,WeatherSnoop3.0,2013-04-05 13:56:00,
2013-04-05 09:01:00,49.6,46.8,30.20,NW,318,0.0,-999.0,90,0.00,,,0.00,WeatherSnoop3.0,2013-04-05 14:01:00,
2013-04-05 09:06:00,50.0,46.9,30.20,NW,317,0.0,-999.0,89,0.00,,,0.00,WeatherSnoop3.0,2013-04-05 14:06:00,
2013-04-05 09:11:00,50.3,46.9,30.20,NNW,339,0.0,-999.0,88,0.00,,,0.00,WeatherSnoop3.0,2013-04-05 14:11:00,
2013-04-05 09:16:00,50.7,47.0,30.20,North,351,0.0,-999.0,87,0.00,,,0.00,WeatherSnoop3.0,2013-04-05 14:16:00,
2013-04-05 09:21:00,50.6,46.6,30.19,NNE,14,0.0,-999.0,86,0.00,,,0.00,WeatherSnoop3.0,2013-04-05 14:21:00,
2013-04-05 09:26:00,50.8,46.5,30.20,NNE,24,0.0,-999.0,85,0.00,,,0.00,WeatherSnoop3.0,2013-04-05 14:26:00,
2013-04-05 09:32:00,51.2,46.8,30.20,NW,306,0.0,-999.0,85,0.00,,,0.00,WeatherSnoop3.0,2013-04-05 14:32:00,
2013-04-05 09:37:00,51.5,47.1,30.20,North,355,0.0,-999.0,85,0.00,,,0.00,WeatherSnoop3.0,2013-04-05 14:37:00,
2013-04-05 09:42:00,51.8,47.4,30.20,NNW,342,0.0,-999.0,85,0.00,,,0.00,WeatherSnoop3.0,2013-04-05 14:42:00,
2013-04-05 09:47:00,51.8,47.4,30.20,North,355,0.0,-999.0,85,0.00,,,0.00,WeatherSnoop3.0,2013-04-05 14:47:00,
2013-04-05 09:52:00,52.0,47.6,30.20,NNW,344,0.0,-999.0,85,0.00,,,0.00,WeatherSnoop3.0,2013-04-05 14:52:00,
2013-04-05 09:57:00,52.4,47.7,30.21,North,360,0.0,-999.0,84,0.00,,,0.00,WeatherSnoop3.0,2013-04-05 14:57:00,
2013-04-05 10:02:00,52.3,47.3,30.20,North,5,0.0,-999.0,83,0.00,,,0.00,WeatherSnoop3.0,2013-04-05 15:02:00,
2013-04-05 10:07:00,52.6,47.6,30.20,NNW,342,0.0,-999.0,83,0.00,,,0.00,WeatherSnoop3.0,2013-04-05 15:07:00,
2013-04-05 10:12:00,53.2,48.5,30.21,NNW,338,0.0,-999.0,84,0.00,,,0.00,WeatherSnoop3.0,2013-04-05 15:12:00,
2013-04-05 10:17:00,53.7,48.3,30.21,North,10,0.0,-999.0,82,0.00,,,0.00,WeatherSnoop3.0,2013-04-05 15:17:00,
2013-04-05 10:22:00,54.0,48.6,30.21,NW,319,0.0,-999.0,82,0.00,,,0.00,WeatherSnoop3.0,2013-04-05 15:22:00,
2013-04-05 10:27:00,53.7,48.3,30.21,North,351,0.0,-999.0,82,0.00,,,0.00,WeatherSnoop3.0,2013-04-05 15:27:00,
2013-04-05 10:32:00,54.1,48.7,30.21,NW,323,0.0,-999.0,82,0.00,,,0.00,WeatherSnoop3.0,2013-04-05 15:32:00,
2013-04-05 10:37:00,54.4,48.4,30.21,NW,314,0.0,-999.0,80,0.00,,,0.00,WeatherSnoop3.0,2013-04-05 15:37:00,
2013-04-05 10:42:00,55.1,49.4,30.21,North,5,0.0,-999.0,81,0.00,,,0.00,WeatherSnoop3.0,2013-04-05 15:42:00,
2013-04-05 10:47:00,55.1,49.0,30.21,NW,312,0.0,-999.0,80,0.00,,,0.00,WeatherSnoop3.0,2013-04-05 15:47:00,
2013-04-05 10:52:00,55.5,49.1,30.21,NNW,329,0.0,-999.0,79,0.00,,,0.00,WeatherSnoop3.0,2013-04-05 15:52:00,
2013-04-05 10:57:00,56.0,49.2,30.21,NW,325,0.0,-999.0,78,0.00,,,0.00,WeatherSnoop3.0,2013-04-05 15:57:00,
2013-04-05 11:02:00,56.3,50.2,30.21,WNW,300,0.0,-999.0,80,0.00,,,0.00,WeatherSnoop3.0,2013-04-05 16:02:00,
2013-04-05 11:07:00,56.4,50.0,30.21,NW,315,0.0,-999.0,79,0.00,,,0.00,WeatherSnoop3.0,2013-04-05 16:07:00,
2013-04-05 11:12:00,56.6,50.2,30.21,NW,322,0.0,-999.0,79,0.00,,,0.00,WeatherSnoop3.0,2013-04-05 16:12:00,
2013-04-05 11:17:00,56.4,49.6,30.21,WNW,302,0.0,-999.0,78,0.00,,,0.00,WeatherSnoop3.0,2013-04-05 16:17:00,
2013-04-05 11:22:00,57.0,49.5,30.20,NNW,327,0.0,-999.0,76,0.00,,,0.00,WeatherSnoop3.0,2013-04-05 16:22:00,
2013-04-05 11:27:00,57.4,50.9,30.20,NW,325,0.0,-999.0,79,0.00,,,0.00,WeatherSnoop3.0,2013-04-05 16:27:00,
2013-04-05 11:32:00,58.2,52.1,30.20,North,360,0.0,-999.0,80,0.00,,,0.00,WeatherSnoop3.0,2013-04-05 16:32:00,
2013-04-05 11:37:00,58.2,50.0,30.20,NW,319,0.0,-999.0,74,0.00,,,0.00,WeatherSnoop3.0,2013-04-05 16:37:00,
2013-04-05 11:42:00,58.0,50.5,30.20,NNW,327,0.0,-999.0,76,0.00,,,0.00,WeatherSnoop3.0,2013-04-05 16:42:00,
2013-04-05 11:47:00,58.5,51.3,30.20,NW,323,0.0,-999.0,77,0.00,,,0.00,WeatherSnoop3.0,2013-04-05 16:47:00,
2013-04-05 11:52:00,58.4,50.5,30.19,NW,314,0.0,-999.0,75,0.00,,,0.00,WeatherSnoop3.0,2013-04-05 16:52:00,
2013-04-05 11:57:00,59.3,52.4,30.19,NW,312,0.0,-999.0,78,0.00,,,0.00,WeatherSnoop3.0,2013-04-05 16:57:00,
2013-04-05 12:02:00,59.5,51.6,30.19,NW,323,0.0,-999.0,75,0.00,,,0.00,WeatherSnoop3.0,2013-04-05 17:02:00,
2013-04-05 12:07:00,59.7,51.4,30.18,NNE,27,0.0,-999.0,74,0.00,,,0.00,WeatherSnoop3.0,2013-04-05 17:07:00,
2013-04-05 12:12:00,60.0,52.1,30.19,North,350,0.0,-999.0,75,0.00,,,0.00,WeatherSnoop3.0,2013-04-05 17:12:00,
2013-04-05 12:17:00,60.3,52.3,30.19,North,355,0.0,-999.0,75,0.00,,,0.00,WeatherSnoop3.0,2013-04-05 17:17:00,
2013-04-05 12:22:00,60.2,51.1,30.18,North,355,0.0,-999.0,72,0.00,,,0.00,WeatherSnoop3.0,2013-04-05 17:22:00,
2013-04-05 12:27:00,60.5,52.2,30.18,NNE,13,0.0,-999.0,74,0.00,,,0.00,WeatherSnoop3.0,2013-04-05 17:27:00,
2013-04-05 12:32:00,61.0,51.5,30.18,North,349,0.0,-999.0,71,0.00,,,0.00,WeatherSnoop3.0,2013-04-05 17:32:00,
2013-04-05 12:37:00,61.2,52.1,30.18,NW,320,0.0,-999.0,72,0.00,,,0.00,WeatherSnoop3.0,2013-04-05 17:37:00,
2013-04-05 12:42:00,61.7,52.6,30.18,North,360,0.0,-999.0,72,0.00,,,0.00,WeatherSnoop3.0,2013-04-05 17:42:00,
2013-04-05 12:47:00,62.3,53.9,30.18,North,11,0.0,-999.0,74,0.00,,,0.00,WeatherSnoop3.0,2013-04-05 17:47:00,
2013-04-05 12:52:00,62.9,53.3,30.18,NW,324,0.0,-999.0,71,0.00,,,0.00,WeatherSnoop3.0,2013-04-05 17:52:00,
2013-04-05 12:57:00,63.2,53.6,30.18,North,360,0.0,-999.0,71,0.00,,,0.00,WeatherSnoop3.0,2013-04-05 17:57:00,
2013-04-05 13:02:00,63.3,53.0,30.18,NE,51,0.0,-999.0,69,0.00,,,0.00,WeatherSnoop3.0,2013-04-05 18:02:00,
2013-04-05 13:07:00,63.4,53.0,30.17,North,360,0.0,-999.0,69,0.00,,,0.00,WeatherSnoop3.0,2013-04-05 18:07:00,
2013-04-05 13:12:00,63.7,53.7,30.17,NNE,28,0.0,-999.0,70,0.00,,,0.00,WeatherSnoop3.0,2013-04-05 18:12:00,
2013-04-05 13:17:00,64.3,54.3,30.17,NNW,327,0.0,-999.0,70,0.00,,,0.00,WeatherSnoop3.0,2013-04-05 18:17:00,
2013-04-05 13:22:00,64.3,54.3,30.17,NW,317,0.0,-999.0,70,0.00,,,0.00,WeatherSnoop3.0,2013-04-05 18:22:00,
2013-04-05 13:27:00,64.1,53.7,30.16,NNE,26,0.0,-999.0,69,0.00,,,0.00,WeatherSnoop3.0,2013-04-05 18:27:00,
2013-04-05 13:32:00,64.6,53.0,30.17,North,5,0.0,-999.0,66,0.00,,,0.00,WeatherSnoop3.0,2013-04-05 18:32:00,
2013-04-05 13:37:00,65.0,52.9,30.16,NNW,341,0.0,-999.0,65,0.00,,,0.00,WeatherSnoop3.0,2013-04-05 18:37:00,
2013-04-05 13:42:00,65.1,52.6,30.15,NW,322,0.0,-999.0,64,0.00,,,0.00,WeatherSnoop3.0,2013-04-05 18:42:00,
2013-04-05 13:47:00,65.8,53.7,30.15,NNE,22,0.0,-999.0,65,0.00,,,0.01,WeatherSnoop3.0,2013-04-05 18:47:00,
2013-04-05 13:52:00,66.0,53.5,30.15,NNE,29,0.0,-999.0,64,0.00,,,0.01,WeatherSnoop3.0,2013-04-05 18:52:00,
2013-04-05 13:57:00,66.7,55.8,30.15,NNE,15,0.0,-999.0,68,0.00,,,0.01,WeatherSnoop3.0,2013-04-05 18:57:00,
2013-04-05 14:02:00,66.9,53.0,30.14,NNE,24,0.0,-999.0,61,0.00,,,0.01,WeatherSnoop3.0,2013-04-05 19:02:00,
2013-04-05 14:07:00,66.8,53.8,30.14,NNE,32,0.0,-999.0,63,0.00,,,0.01,WeatherSnoop3.0,2013-04-05 19:07:00,
2013-04-05 14:12:00,66.6,52.3,30.14,NNW,340,0.0,-999.0,60,0.00,,,0.01,WeatherSnoop3.0,2013-04-05 19:12:00,
2013-04-05 14:17:00,66.4,53.0,30.15,NNE,33,0.0,-999.0,62,0.00,,,0.01,WeatherSnoop3.0,2013-04-05 19:17:00,
2013-04-05 14:22:00,66.8,52.9,30.14,NNE,19,0.0,-999.0,61,0.00,,,0.01,WeatherSnoop3.0,2013-04-05 19:22:00,
2013-04-05 14:27:00,67.3,53.8,30.14,NNE,27,0.0,-999.0,62,0.00,,,0.01,WeatherSnoop3.0,2013-04-05 19:27:00,
2013-04-05 14:32:00,67.4,53.0,30.14,NNW,345,0.0,-999.0,60,0.00,,,0.01,WeatherSnoop3.0,2013-04-05 19:32:00,
2013-04-05 14:37:00,66.9,53.0,30.14,NW,307,0.0,-999.0,61,0.00,,,0.01,WeatherSnoop3.0,2013-04-05 19:37:00,
2013-04-05 14:42:00,67.0,51.7,30.14,NW,313,0.0,-999.0,58,0.00,,,0.01,WeatherSnoop3.0,2013-04-05 19:42:00,
2013-04-05 14:47:00,66.8,52.0,30.13,NNW,332,0.0,-999.0,59,0.00,,,0.01,WeatherSnoop3.0,2013-04-05 19:47:00,
2013-04-05 14:52:00,67.4,53.0,30.13,NW,325,0.0,-999.0,60,0.00,,,0.01,WeatherSnoop3.0,2013-04-05 19:52:00,
2013-04-05 14:57:00,67.6,54.5,30.13,North,5,0.0,-999.0,63,0.00,,,0.01,WeatherSnoop3.0,2013-04-05 19:57:00,
2013-04-05 15:02:00,68.3,53.4,30.13,North,5,0.0,-999.0,59,0.00,,,0.01,WeatherSnoop3.0,2013-04-05 20:02:00,
2013-04-05 15:07:00,68.1,52.3,30.12,NW,319,0.0,-999.0,57,0.00,,,0.01,WeatherSnoop3.0,2013-04-05 20:07:00,
2013-04-05 15:12:00,68.4,52.6,30.12,North,10,0.0,-999.0,57,0.00,,,0.01,WeatherSnoop3.0,2013-04-05 20:12:00,
2013-04-05 15:17:00,68.2,52.4,30.12,North,355,0.0,-999.0,57,0.00,,,0.01,WeatherSnoop3.0,2013-04-05 20:17:00,
2013-04-05 15:22:00,68.3,52.9,30.12,NNW,346,0.0,-999.0,58,0.00,,,0.01,WeatherSnoop3.0,2013-04-05 20:22:00,
2013-04-05 15:27:00,68.4,52.1,30.12,NW,325,0.0,-999.0,56,0.00,,,0.01,WeatherSnoop3.0,2013-04-05 20:27:00,
2013-04-05 15:32:00,68.5,51.7,30.11,NW,311,0.0,-999.0,55,0.00,,,0.01,WeatherSnoop3.0,2013-04-05 20:32:00,
2013-04-05 15:37:00,68.6,52.3,30.11,North,355,0.0,-999.0,56,0.00,,,0.01,WeatherSnoop3.0,2013-04-05 20:37:00,
2013-04-05 15:42:00,68.4,50.6,30.11,NW,315,0.0,-999.0,53,0.00,,,0.01,WeatherSnoop3.0,2013-04-05 20:42:00,
2013-04-05 15:47:00,68.6,51.3,30.11,NW,321,0.0,-999.0,54,0.00,,,0.01,WeatherSnoop3.0,2013-04-05 20:47:00,
2013-04-05 15:52:00,68.8,50.4,30.11,North,355,0.0,-999.0,52,0.00,,,0.01,WeatherSnoop3.0,2013-04-05 20:52:00,
2013-04-05 15:57:00,69.1,51.2,30.11,North,360,0.0,-999.0,53,0.00,,,0.01,WeatherSnoop3.0,2013-04-05 20:57:00,
2013-04-05 16:02:00,69.0,50.1,30.10,NNE,16,0.0,-999.0,51,0.00,,,0.01,WeatherSnoop3.0,2013-04-05 21:02:00,
2013-04-05 16:07:00,69.6,52.2,30.10,NE,40,0.0,-999.0,54,0.00,,,0.01,WeatherSnoop3.0,2013-04-05 21:07:00,
2013-04-05 16:12:00,70.2,51.7,30.10,North,5,0.0,-999.0,52,0.00,,,0.01,WeatherSnoop3.0,2013-04-05 21:12:00,
2013-04-05 16:17:00,69.5,50.0,30.10,NW,319,0.0,-999.0,50,0.00,,,0.01,WeatherSnoop3.0,2013-04-05 21:17:00,
2013-04-05 16:22:00,69.1,48.6,30.09,NNE,13,0.0,-999.0,48,0.00,,,0.01,WeatherSnoop3.0,2013-04-05 21:22:00,
2013-04-05 16:27:00,69.5,50.0,30.09,North,5,0.0,-999.0,50,0.00,,,0.01,WeatherSnoop3.0,2013-04-05 21:27:00,
2013-04-05 16:32:00,70.0,49.4,30.09,NW,318,0.0,-999.0,48,0.00,,,0.01,WeatherSnoop3.0,2013-04-05 21:32:00,
2013-04-05 16:37:00,69.7,49.1,30.10,NNE,15,0.0,-999.0,48,0.00,,,0.01,WeatherSnoop3.0,2013-04-05 21:37:00,
2013-04-05 16:42:00,69.6,49.0,30.10,NNE,28,0.0,-999.0,48,0.00,,,0.01,WeatherSnoop3.0,2013-04-05 21:42:00,
2013-04-05 16:47:00,70.0,50.0,30.09,NNE,25,0.0,-999.0,49,0.00,,,0.01,WeatherSnoop3.0,2013-04-05 21:47:00,
2013-04-05 16:52:00,70.1,50.0,30.09,North,360,0.0,-999.0,49,0.00,,,0.01,WeatherSnoop3.0,2013-04-05 21:52:00,
2013-04-05 16:57:00,69.6,50.7,30.09,North,11,0.0,-999.0,51,0.00,,,0.01,WeatherSnoop3.0,2013-04-05 21:57:00,
2013-04-05 17:02:00,69.6,51.7,30.09,NNE,16,0.0,-999.0,53,0.00,,,0.01,WeatherSnoop3.0,2013-04-05 22:02:00,
2013-04-05 17:07:00,70.1,48.9,30.09,North,360,0.0,-999.0,47,0.00,,,0.01,WeatherSnoop3.0,2013-04-05 22:07:00,
2013-04-05 17:12:00,69.9,48.7,30.09,NNW,348,0.0,-999.0,47,0.00,,,0.01,WeatherSnoop3.0,2013-04-05 22:12:00,
2013-04-05 17:17:00,69.6,46.7,30.09,North,360,0.0,-999.0,44,0.00,,,0.01,WeatherSnoop3.0,2013-04-05 22:17:00,
2013-04-05 17:22:00,69.6,47.9,30.09,North,351,0.0,-999.0,46,0.00,,,0.01,WeatherSnoop3.0,2013-04-05 22:22:00,
2013-04-05 17:27:00,69.7,48.6,30.09,NE,52,0.0,-999.0,47,0.00,,,0.01,WeatherSnoop3.0,2013-04-05 22:27:00,
2013-04-05 17:32:00,70.0,51.6,30.09,NW,311,0.0,-999.0,52,0.00,,,0.01,WeatherSnoop3.0,2013-04-05 22:32:00,
2013-04-05 17:37:00,68.9,51.1,30.09,North,360,0.0,-999.0,53,0.00,,,0.01,WeatherSnoop3.0,2013-04-05 22:37:00,
2013-04-05 17:42:00,69.3,50.9,30.09,NNE,14,0.0,-999.0,52,0.00,,,0.01,WeatherSnoop3.0,2013-04-05 22:42:00,
2013-04-05 17:47:00,69.6,52.2,30.09,NNW,348,0.0,-999.0,54,0.00,,,0.01,WeatherSnoop3.0,2013-04-05 22:47:00,
2013-04-05 17:52:00,68.8,51.5,30.09,North,351,0.0,-999.0,54,0.00,,,0.01,WeatherSnoop3.0,2013-04-05 22:52:00,
2013-04-05 17:57:00,68.5,50.7,30.09,NNW,328,0.0,-999.0,53,0.00,,,0.01,WeatherSnoop3.0,2013-04-05 22:57:00,
2013-04-05 18:02:00,68.1,50.8,30.09,NNW,332,0.0,-999.0,54,0.00,,,0.01,WeatherSnoop3.0,2013-04-05 23:02:00,
2013-04-05 18:07:00,67.8,51.0,30.09,NW,325,0.0,-999.0,55,0.00,,,0.01,WeatherSnoop3.0,2013-04-05 23:07:00,
2013-04-05 18:12:00,67.4,51.2,30.08,North,360,0.0,-999.0,56,0.00,,,0.01,WeatherSnoop3.0,2013-04-05 23:12:00,
2013-04-05 18:17:00,66.9,50.7,30.09,NNW,327,0.0,-999.0,56,0.00,,,0.01,WeatherSnoop3.0,2013-04-05 23:17:00,
2013-04-05 18:22:00,66.3,51.1,30.09,North,350,0.0,-999.0,58,0.00,,,0.01,WeatherSnoop3.0,2013-04-05 23:22:00,
2013-04-05 18:27:00,65.8,51.5,30.09,NNW,329,0.0,-999.0,60,0.00,,,0.01,WeatherSnoop3.0,2013-04-05 23:27:00,
2013-04-05 18:32:00,65.8,51.5,30.09,North,9,0.0,-999.0,60,0.00,,,0.01,WeatherSnoop3.0,2013-04-05 23:32:00,
2013-04-05 18:37:00,65.8,52.0,30.09,NW,323,0.0,-999.0,61,0.00,,,0.01,WeatherSnoop3.0,2013-04-05 23:37:00,
2013-04-05 18:42:00,65.6,50.9,30.10,NNW,330,0.0,-999.0,59,0.00,,,0.01,WeatherSnoop3.0,2013-04-05 23:42:00,
2013-04-05 18:47:00,65.3,50.6,30.10,NNW,333,0.0,-999.0,59,0.00,,,0.01,WeatherSnoop3.0,2013-04-05 23:47:00,
2013-04-05 18:52:00,65.0,50.8,30.10,NNW,329,0.0,-999.0,60,0.00,,,0.01,WeatherSnoop3.0,2013-04-05 23:52:00,
2013-04-05 18:57:00,64.6,50.4,30.10,NNW,327,0.0,-999.0,60,0.00,,,0.01,WeatherSnoop3.0,2013-04-05 23:57:00,
2013-04-05 19:02:00,64.1,50.8,30.10,NNW,328,0.0,-999.0,62,0.00,,,0.01,WeatherSnoop3.0,2013-04-06 00:02:00,
2013-04-05 19:07:00,63.5,50.2,30.10,NW,319,0.0,-999.0,62,0.00,,,0.01,WeatherSnoop3.0,2013-04-06 00:07:00,
2013-04-05 19:12:00,63.0,50.2,30.10,NW,321,0.0,-999.0,63,0.00,,,0.01,WeatherSnoop3.0,2013-04-06 00:12:00,
2013-04-05 19:17:00,62.2,49.4,30.10,NW,321,0.0,-999.0,63,0.00,,,0.01,WeatherSnoop3.0,2013-04-06 00:17:00,
2013-04-05 19:22:00,61.8,49.9,30.11,NW,321,0.0,-999.0,65,0.00,,,0.01,WeatherSnoop3.0,2013-04-06 00:22:00,
2013-04-05 19:27:00,61.3,49.8,30.11,NW,321,0.0,-999.0,66,0.00,,,0.01,WeatherSnoop3.0,2013-04-06 00:27:00,
2013-04-05 19:32:00,61.0,49.6,30.11,NW,321,0.0,-999.0,66,0.00,,,0.01,WeatherSnoop3.0,2013-04-06 00:32:00,
2013-04-05 19:37:00,60.6,49.6,30.11,NW,321,0.0,-999.0,67,0.00,,,0.01,WeatherSnoop3.0,2013-04-06 00:37:00,
2013-04-05 19:42:00,60.4,49.8,30.11,NW,321,0.0,-999.0,68,0.00,,,0.01,WeatherSnoop3.0,2013-04-06 00:42:00,
2013-04-05 19:47:00,60.0,49.4,30.11,NW,321,0.0,-999.0,68,0.00,,,0.01,WeatherSnoop3.0,2013-04-06 00:47:00,
2013-04-05 19:52:00,59.5,49.3,30.11,North,360,0.0,-999.0,69,0.00,,,0.01,WeatherSnoop3.0,2013-04-06 00:52:00,
2013-04-05 19:57:00,59.0,49.2,30.11,NW,320,0.0,-999.0,70,0.00,,,0.01,WeatherSnoop3.0,2013-04-06 00:57:00,
2013-04-05 20:02:00,58.4,49.0,30.12,NW,321,0.0,-999.0,71,0.00,,,0.01,WeatherSnoop3.0,2013-04-06 01:02:00,
2013-04-05 20:07:00,58.1,49.1,30.11,NW,321,0.0,-999.0,72,0.00,,,0.01,WeatherSnoop3.0,2013-04-06 01:07:00,
2013-04-05 20:12:00,57.7,49.1,30.11,NW,321,0.0,-999.0,73,0.00,,,0.01,WeatherSnoop3.0,2013-04-06 01:12:00,
2013-04-05 20:17:00,57.3,48.7,30.11,NW,321,0.0,-999.0,73,0.00,,,0.01,WeatherSnoop3.0,2013-04-06 01:17:00,
2013-04-05 20:22:00,57.0,49.2,30.11,NW,321,0.0,-999.0,75,0.00,,,0.01,WeatherSnoop3.0,2013-04-06 01:22:00,
2013-04-05 20:27:00,56.7,49.2,30.11,NW,321,0.0,-999.0,76,0.00,,,0.01,WeatherSnoop3.0,2013-04-06 01:27:00,
2013-04-05 20:32:00,56.3,49.2,30.11,NW,321,0.0,-999.0,77,0.00,,,0.01,WeatherSnoop3.0,2013-04-06 01:32:00,
2013-04-05 20:37:00,55.9,48.8,30.11,NW,321,0.0,-999.0,77,0.00,,,0.01,WeatherSnoop3.0,2013-04-06 01:37:00,
2013-04-05 20:42:00,55.7,48.9,30.11,NW,321,0.0,-999.0,78,0.00,,,0.01,WeatherSnoop3.0,2013-04-06 01:42:00,
2013-04-05 20:47:00,55.4,49.0,30.11,ENE,62,0.0,-999.0,79,0.00,,,0.01,WeatherSnoop3.0,2013-04-06 01:47:00,
2013-04-05 20:52:00,55.2,49.1,30.12,ENE,62,0.0,-999.0,80,0.00,,,0.01,WeatherSnoop3.0,2013-04-06 01:52:00,
2013-04-05 20:57:00,55.0,48.9,30.12,ENE,61,0.0,-999.0,80,0.00,,,0.01,WeatherSnoop3.0,2013-04-06 01:57:00,
2013-04-05 21:02:00,54.8,49.1,30.12,ENE,61,0.0,-999.0,81,0.00,,,0.01,WeatherSnoop3.0,2013-04-06 02:02:00,
2013-04-05 21:07:00,54.6,49.2,30.12,ENE,62,0.0,-999.0,82,0.00,,,0.01,WeatherSnoop3.0,2013-04-06 02:07:00,
2013-04-05 21:12:00,54.4,49.3,30.12,ENE,62,0.0,-999.0,83,0.00,,,0.01,WeatherSnoop3.0,2013-04-06 02:12:00,
2013-04-05 21:17:00,54.1,48.7,30.12,ENE,63,0.0,-999.0,82,0.00,,,0.01,WeatherSnoop3.0,2013-04-06 02:17:00,
2013-04-05 21:22:00,53.9,48.5,30.12,ENE,63,0.0,-999.0,82,0.00,,,0.01,WeatherSnoop3.0,2013-04-06 02:22:00,
2013-04-05 21:27:00,53.7,48.7,30.12,ENE,63,0.0,-999.0,83,0.00,,,0.01,WeatherSnoop3.0,2013-04-06 02:27:00,
2013-04-05 21:32:00,53.6,48.6,30.12,ENE,76,0.0,-999.0,83,0.00,,,0.01,WeatherSnoop3.0,2013-04-06 02:32:00,
2013-04-05 21:37:00,53.5,48.8,30.12,ENE,77,0.0,-999.0,84,0.00,,,0.01,WeatherSnoop3.0,2013-04-06 02:37:00,
2013-04-05 21:42:00,53.4,48.7,30.13,ENE,70,0.0,-999.0,84,0.00,,,0.01,WeatherSnoop3.0,2013-04-06 02:42:00,
2013-04-05 21:47:00,53.4,49.0,30.13,ENE,73,0.0,-999.0,85,0.00,,,0.01,WeatherSnoop3.0,2013-04-06 02:47:00,
2013-04-05 21:52:00,53.3,48.9,30.13,ENE,73,0.0,-999.0,85,0.00,,,0.01,WeatherSnoop3.0,2013-04-06 02:52:00,
2013-04-05 21:57:00,53.1,49.0,30.13,ENE,73,0.0,-999.0,86,0.00,,,0.01,WeatherSnoop3.0,2013-04-06 02:57:00,
2013-04-05 22:02:00,53.0,48.9,30.13,ENE,72,0.0,-999.0,86,0.00,,,0.01,WeatherSnoop3.0,2013-04-06 03:02:00,
2013-04-05 22:07:00,52.8,48.7,30.13,ENE,73,0.0,-999.0,86,0.00,,,0.01,WeatherSnoop3.0,2013-04-06 03:07:00,
2013-04-05 22:12:00,52.6,48.5,30.14,ENE,73,0.0,-999.0,86,0.00,,,0.01,WeatherSnoop3.0,2013-04-06 03:12:00,
2013-04-05 22:17:00,52.4,48.6,30.14,ENE,73,0.0,-999.0,87,0.00,,,0.01,WeatherSnoop3.0,2013-04-06 03:17:00,
2013-04-05 22:22:00,52.1,48.3,30.14,ENE,73,0.0,-999.0,87,0.00,,,0.01,WeatherSnoop3.0,2013-04-06 03:22:00,
2013-04-05 22:27:00,51.9,48.2,30.14,ESE,111,0.0,-999.0,87,0.00,,,0.01,WeatherSnoop3.0,2013-04-06 03:27:00,
2013-04-05 22:32:00,51.6,48.2,30.14,ESE,111,0.0,-999.0,88,0.00,,,0.01,WeatherSnoop3.0,2013-04-06 03:32:00,
2013-04-05 22:37:00,51.4,47.7,30.14,East,86,0.0,-999.0,87,0.00,,,0.01,WeatherSnoop3.0,2013-04-06 03:37:00,
2013-04-05 22:42:00,51.2,47.5,30.14,ENE,65,0.0,-999.0,87,0.00,,,0.01,WeatherSnoop3.0,2013-04-06 03:42:00,
2013-04-05 22:47:00,51.1,47.4,30.13,ENE,65,0.0,-999.0,87,0.00,,,0.01,WeatherSnoop3.0,2013-04-06 03:47:00,
2013-04-05 22:52:00,50.9,47.2,30.13,ENE,65,0.0,-999.0,87,0.00,,,0.01,WeatherSnoop3.0,2013-04-06 03:52:00,
2013-04-05 22:57:00,50.8,47.1,30.13,ENE,65,0.0,-999.0,87,0.00,,,0.01,WeatherSnoop3.0,2013-04-06 03:57:00,
2013-04-05 23:00:00,50.7,47.0,30.13,ENE,65,0.0,-999.0,87,0.00,,,0.01,WeatherSnoop3.0,2013-04-06 04:00:00,
2013-04-05 23:05:00,50.6,46.9,30.13,ENE,65,0.0,-999.0,87,0.00,,,0.01,WeatherSnoop3.0,2013-04-06 04:05:00,
2013-04-05 23:10:00,50.5,46.8,30.13,ENE,65,0.0,-999.0,87,0.00,,,0.01,WeatherSnoop3.0,2013-04-06 04:10:00,
2013-04-05 23:15:00,50.3,46.9,30.13,ENE,65,0.0,-999.0,88,0.00,,,0.01,WeatherSnoop3.0,2013-04-06 04:15:00,
2013-04-05 23:20:00,50.3,47.2,30.14,ENE,65,0.0,-999.0,89,0.00,,,0.01,WeatherSnoop3.0,2013-04-06 04:20:00,
2013-04-05 23:25:00,50.3,47.2,30.14,ENE,65,0.0,-999.0,89,0.00,,,0.01,WeatherSnoop3.0,2013-04-06 04:25:00,
2013-04-05 23:30:00,50.1,47.0,30.13,ENE,65,0.0,-999.0,89,0.00,,,0.01,WeatherSnoop3.0,2013-04-06 04:30:00,
2013-04-05 23:35:00,49.9,46.8,30.13,ENE,65,0.0,-999.0,89,0.00,,,0.01,WeatherSnoop3.0,2013-04-06 04:35:00,
2013-04-05 23:40:00,49.8,47.0,30.13,ENE,65,0.0,-999.0,90,0.00,,,0.01,WeatherSnoop3.0,2013-04-06 04:40:00,
2013-04-05 23:45:00,49.7,46.9,30.13,ENE,65,0.0,-999.0,90,0.00,,,0.01,WeatherSnoop3.0,2013-04-06 04:45:00,
2013-04-05 23:50:00,49.6,47.1,30.14,ENE,65,0.0,-999.0,91,0.00,,,0.01,WeatherSnoop3.0,2013-04-06 04:50:00,
2013-04-05 23:55:00,49.4,46.6,30.14,ENE,65,0.0,-999.0,90,0.00,,,0.01,WeatherSnoop3.0,2013-04-06 04:55:00,